Time;durP1;ratioP1;P1;durP2;ratioP2;P2;SDS_P1;SDS_P2;PMS_P1;PMS_P2;Temp;Humidity;BMP_temperature;BMP_pressure;BME280_temperature;BME280_humidity;BME280_pressure;Samples;Min_cycle;Max_cycle;Signal;HPM_P1;HPM_P2
2023/02/09 00:02:12;;;;;;;63.13;26.60;;;-5.80;1.00;;;;;;6139515;23;20041;-86
2023/02/09 00:04:59;;;;;;;55.35;26.30;;;-5.90;99.90;;;;;;6222586;23;20022;-87
2023/02/09 00:07:49;;;;;;;63.25;28.00;;;-6.00;99.90;;;;;;6137958;23;20053;-89
2023/02/09 00:10:38;;;;;;;66.75;28.73;;;-6.10;1.00;;;;;;6135497;23;20025;-88
2023/02/09 00:13:26;;;;;;;62.85;27.08;;;-6.10;1.00;;;;;;6208956;23;20026;-88
2023/02/09 00:16:13;;;;;;;57.67;26.25;;;-6.20;99.90;;;;;;6126665;23;20401;-89
2023/02/09 00:19:26;;;;;;;63.08;27.45;;;-6.20;1.00;;;;;;6210925;23;20101;-86
2023/02/09 00:22:15;;;;;;;51.22;20.48;;;-6.20;1.00;;;;;;6124865;23;20034;-90
2023/02/09 00:25:05;;;;;;;65.82;26.65;;;-6.30;1.00;;;;;;6126808;23;20022;-89
2023/02/09 00:27:55;;;;;;;59.33;26.83;;;-6.30;1.00;;;;;;6123620;23;20033;-89
2023/02/09 00:30:43;;;;;;;69.50;27.08;;;-6.30;1.00;;;;;;6211106;23;20026;-88
2023/02/09 00:33:30;;;;;;;67.93;29.52;;;-6.30;1.00;;;;;;6210475;22;20022;-88
2023/02/09 00:36:18;;;;;;;68.47;28.83;;;-6.40;1.00;;;;;;6125148;23;20041;-87
2023/02/09 00:39:05;;;;;;;63.58;29.73;;;-6.10;99.90;;;;;;6124466;23;20026;-89
2023/02/09 00:42:09;;;;;;;69.40;28.52;;;-5.90;99.90;;;;;;6209058;23;20022;-90
2023/02/09 00:44:57;;;;;;;59.45;26.67;;;-5.90;98.10;;;;;;6206380;23;20036;-91
2023/02/09 00:47:44;;;;;;;68.78;28.08;;;-5.90;4.50;;;;;;6209558;23;20026;-89
2023/02/09 00:50:34;;;;;;;54.63;25.80;;;-6.10;1.00;;;;;;6121731;23;20056;-90
2023/02/09 00:53:23;;;;;;;66.20;28.95;;;-6.40;1.00;;;;;;6206707;23;20369;-89
2023/02/09 00:56:25;;;;;;;62.17;27.48;;;-6.50;1.00;;;;;;6195806;23;20294;-91
2023/02/09 00:59:12;;;;;;;59.20;25.63;;;-6.60;1.00;;;;;;6130264;22;20448;-90
2023/02/09 01:02:00;;;;;;;64.80;27.80;;;-6.60;58.60;;;;;;6125693;23;20029;-89
2023/02/09 01:04:47;;;;;;;64.43;27.98;;;-6.50;99.90;;;;;;6123088;23;20398;-89
2023/02/09 01:07:35;;;;;;;61.08;27.92;;;-6.60;99.90;;;;;;6123186;23;20029;-88
2023/02/09 01:10:30;;;;;;;64.13;26.33;;;-6.60;99.90;;;;;;6122192;23;20113;-90
2023/02/09 01:13:17;;;;;;;65.07;28.20;;;-6.60;99.90;;;;;;6209486;23;20293;-90
2023/02/09 01:16:09;;;;;;;65.85;29.65;;;-6.60;1.00;;;;;;6125463;22;20118;-87
2023/02/09 01:19:01;;;;;;;68.70;29.02;;;-6.40;99.40;;;;;;6124621;23;20090;-89
2023/02/09 01:21:48;;;;;;;64.68;28.35;;;-6.40;72.70;;;;;;6189448;23;20034;-90
2023/02/09 01:24:38;;;;;;;67.88;29.08;;;-6.40;27.00;;;;;;6207922;23;20026;-89
2023/02/09 01:27:25;;;;;;;67.38;29.27;;;-6.50;52.60;;;;;;6207933;23;20334;-89
2023/02/09 01:30:17;;;;;;;65.43;28.38;;;-6.50;75.00;;;;;;6122476;23;20084;-89
2023/02/09 01:33:07;;;;;;;74.10;29.85;;;-6.50;99.90;;;;;;6124265;23;20451;-89
2023/02/09 01:35:58;;;;;;;65.95;29.20;;;-6.50;99.90;;;;;;6127165;23;20030;-88
2023/02/09 01:38:46;;;;;;;70.25;29.65;;;-6.40;99.90;;;;;;6125343;23;20025;-89
2023/02/09 01:41:33;;;;;;;68.93;30.17;;;-6.50;99.90;;;;;;6213190;22;20030;-89
2023/02/09 01:44:22;;;;;;;72.22;30.42;;;-6.60;99.90;;;;;;6210341;23;20026;-88
2023/02/09 01:47:18;;;;;;;65.30;28.13;;;-6.80;99.90;;;;;;6126728;22;20026;-89
2023/02/09 01:50:08;;;;;;;73.15;29.90;;;-7.00;29.70;;;;;;6125095;23;20026;-89
2023/02/09 01:53:03;;;;;;;73.53;29.50;;;-7.10;99.90;;;;;;6124828;23;20033;-90
2023/02/09 01:55:55;;;;;;;75.65;29.70;;;-7.20;99.90;;;;;;6126076;23;20036;-88
2023/02/09 01:58:45;;;;;;;70.22;29.17;;;-7.20;99.90;;;;;;6207184;23;20402;-88
2023/02/09 02:01:36;;;;;;;69.88;29.27;;;-7.30;99.90;;;;;;6125625;23;20030;-89
2023/02/09 02:04:24;;;;;;;74.68;30.02;;;-7.30;99.90;;;;;;6127972;23;20026;-89
2023/02/09 02:07:36;;;;;;;66.75;30.38;;;-7.40;99.90;;;;;;6133907;23;20046;-88
2023/02/09 02:10:24;;;;;;;;;;;-7.50;99.90;;;;;;6134136;23;20026;-90
2023/02/09 02:13:13;;;;;;;62.53;28.15;;;-7.50;1.00;;;;;;6133401;23;19921;-89
2023/02/09 02:16:20;;;;;;;70.63;29.60;;;-7.50;1.00;;;;;;6219584;23;20030;-89
2023/02/09 02:19:39;;;;;;;70.13;29.58;;;-7.50;44.60;;;;;;6138469;22;20026;-89
2023/02/09 02:22:56;;;;;;;69.25;28.70;;;-7.50;70.90;;;;;;6134344;23;20026;-87
2023/02/09 02:26:05;;;;;;;71.70;30.05;;;-7.50;99.90;;;;;;6221270;23;20074;-87
2023/02/09 02:29:21;;;;;;;69.72;30.52;;;-7.50;99.90;;;;;;6130750;23;20025;-89
2023/02/09 02:32:47;;;;;;;71.85;30.73;;;-7.60;99.90;;;;;;6128018;23;20087;-89
2023/02/09 02:35:50;;;;;;;72.82;31.80;;;-7.50;99.90;;;;;;6166652;23;20021;-89
2023/02/09 02:38:56;;;;;;;71.78;30.67;;;-7.40;1.00;;;;;;6126583;23;20076;-89
2023/02/09 02:45:51;;;;;;;73.15;30.48;;;-7.30;99.90;;;;;;6123944;23;20101;-88
2023/02/09 02:48:45;;;;;;;74.50;32.80;;;-7.30;99.90;;;;;;6125547;23;20426;-89
2023/02/09 02:51:44;;;;;;;81.40;35.75;;;-7.10;1.00;;;;;;6208030;23;20459;-88
2023/02/09 02:54:40;;;;;;;73.57;30.52;;;-6.90;1.00;;;;;;6207554;23;20026;-89
2023/02/09 02:57:32;;;;;;;76.57;32.80;;;-6.80;99.90;;;;;;6207077;23;20037;-88
2023/02/09 03:00:31;;;;;;;88.30;34.80;;;-6.70;99.90;;;;;;6207436;23;20033;-88
2023/02/09 03:03:23;;;;;;;81.82;33.95;;;-6.70;36.90;;;;;;6123190;23;20122;-89
2023/02/09 03:06:13;;;;;;;75.43;31.27;;;-6.70;1.00;;;;;;6123273;23;20045;-89
2023/02/09 03:09:00;;;;;;;72.40;32.08;;;-6.70;1.00;;;;;;6123920;23;20053;-89
2023/02/09 03:11:53;;;;;;;77.20;33.35;;;-6.60;1.00;;;;;;6123468;23;20376;-88
2023/02/09 03:15:13;;;;;;;76.50;30.20;;;-6.70;99.90;;;;;;6208797;23;20053;-88
2023/02/09 03:18:29;;;;;;;71.82;31.08;;;-6.80;99.90;;;;;;6125169;23;20014;-89
2023/02/09 03:21:57;;;;;;;69.88;29.52;;;-6.90;99.90;;;;;;6194280;23;20010;-89
2023/02/09 03:25:17;;;;;;;69.22;31.50;;;-7.10;99.90;;;;;;6124570;23;20026;-88
2023/02/09 03:28:16;;;;;;;79.25;33.28;;;-7.10;99.90;;;;;;6127801;23;20080;-89
2023/02/09 03:31:11;;;;;;;76.68;33.53;;;-7.10;1.00;;;;;;6126488;23;20026;-88
2023/02/09 03:33:59;;;;;;;80.38;33.70;;;-7.10;1.00;;;;;;6123277;23;20026;-90
2023/02/09 03:36:53;;;;;;;76.28;33.80;;;-7.20;1.00;;;;;;6207452;23;20030;-88
2023/02/09 03:39:40;;;;;;;76.72;33.22;;;-7.20;1.00;;;;;;6125691;23;20037;-89
2023/02/09 03:42:27;;;;;;;80.75;36.28;;;-7.30;17.00;;;;;;6127566;23;20034;-88
2023/02/09 03:45:17;;;;;;;84.65;35.90;;;-7.20;99.90;;;;;;6125945;23;20443;-89
2023/02/09 03:48:05;;;;;;;76.68;32.17;;;-7.20;1.00;;;;;;6191014;23;20033;-88
2023/02/09 03:50:52;;;;;;;78.15;34.95;;;-7.10;1.00;;;;;;6125386;23;20025;-88
2023/02/09 03:53:39;;;;;;;79.93;32.45;;;-7.10;99.90;;;;;;6124625;22;20036;-87
2023/02/09 03:56:26;;;;;;;75.53;34.08;;;-7.20;99.90;;;;;;6123513;23;20026;-88
2023/02/09 03:59:14;;;;;;;77.75;31.70;;;-7.20;99.90;;;;;;6209768;22;20030;-88
2023/02/09 04:02:04;;;;;;;82.40;33.92;;;-7.30;99.90;;;;;;6210817;22;20040;-87
2023/02/09 04:04:52;;;;;;;77.63;33.50;;;-7.40;1.00;;;;;;6210221;23;20037;-87
2023/02/09 04:07:41;;;;;;;79.25;34.25;;;-7.60;1.00;;;;;;6208096;23;20036;-87
2023/02/09 04:10:36;;;;;;;78.30;32.13;;;-7.70;1.00;;;;;;6124811;22;20022;-88
2023/02/09 04:13:26;;;;;;;74.25;32.17;;;-7.60;99.90;;;;;;6123748;23;20087;-88
2023/02/09 04:16:16;;;;;;;78.00;34.00;;;-7.70;99.90;;;;;;6131681;23;20111;-87
2023/02/09 04:19:05;;;;;;;76.75;34.35;;;-7.60;1.00;;;;;;6130866;23;20034;-88
2023/02/09 04:21:52;;;;;;;82.00;35.38;;;-7.70;1.00;;;;;;6208186;23;20030;-87
2023/02/09 04:24:40;;;;;;;68.18;33.20;;;-7.80;1.00;;;;;;6207203;23;20022;-87
2023/02/09 04:27:30;;;;;;;76.10;32.30;;;-7.80;1.00;;;;;;6123401;23;20560;-87
2023/02/09 04:30:17;;;;;;;78.47;33.33;;;-7.90;1.00;;;;;;6121830;23;20037;-88
2023/02/09 04:33:05;;;;;;;78.32;34.92;;;-8.00;77.80;;;;;;6125911;23;20026;-87
2023/02/09 04:35:52;;;;;;;71.80;31.40;;;-7.90;99.90;;;;;;6208010;23;20040;-86
2023/02/09 04:38:42;;;;;;;79.45;33.13;;;-7.90;1.00;;;;;;6123000;23;20101;-88
2023/02/09 04:41:29;;;;;;;69.28;29.02;;;-8.00;1.00;;;;;;6123738;23;20488;-88
2023/02/09 04:44:16;;;;;;;74.60;30.67;;;-8.00;45.00;;;;;;6124893;23;20033;-89
2023/02/09 04:47:06;;;;;;;76.00;30.98;;;-8.00;1.00;;;;;;6208610;23;20026;-89
2023/02/09 04:49:54;;;;;;;72.80;30.30;;;-8.10;1.00;;;;;;6207587;23;20033;-88
2023/02/09 04:52:41;;;;;;;78.93;32.22;;;-8.10;1.00;;;;;;6207183;23;20022;-88
2023/02/09 04:55:29;;;;;;;84.82;34.10;;;-8.20;1.00;;;;;;6207882;23;20052;-89
2023/02/09 05:01:24;;;;;;;87.35;33.50;;;-8.30;1.00;;;;;;6122983;23;20025;-89
2023/02/09 05:04:11;;;;;;;76.22;33.95;;;-8.30;99.90;;;;;;6126631;23;20419;-88
2023/02/09 05:06:58;;;;;;;82.75;34.15;;;-8.30;99.90;;;;;;6124837;23;20025;-87
2023/02/09 05:09:48;;;;;;;86.25;35.47;;;-8.40;99.90;;;;;;6123563;23;20026;-87
2023/02/09 05:12:36;;;;;;;81.80;34.45;;;-8.30;95.60;;;;;;6122559;23;20405;-88
2023/02/09 05:15:23;;;;;;;80.32;34.05;;;-8.30;99.90;;;;;;6123480;23;20021;-87
2023/02/09 05:18:11;;;;;;;84.80;34.92;;;-8.20;1.00;;;;;;6124097;23;20030;-87
2023/02/09 05:20:58;;;;;;;76.78;32.65;;;-8.20;99.90;;;;;;6208865;23;20029;-88
2023/02/09 05:23:45;;;;;;;81.82;34.53;;;-8.20;58.20;;;;;;6209156;23;20083;-87
2023/02/09 05:26:36;;;;;;;82.72;34.75;;;-8.30;99.90;;;;;;6205409;23;20021;-84
2023/02/09 05:29:23;;;;;;;84.72;34.45;;;-8.30;1.00;;;;;;6210006;23;20021;-89
2023/02/09 05:32:17;;;;;;;86.50;35.65;;;-8.40;1.00;;;;;;6125664;23;20353;-89
2023/02/09 05:35:06;;;;;;;97.88;37.60;;;-8.40;15.10;;;;;;6123324;23;20025;-87
2023/02/09 05:37:59;;;;;;;85.85;36.92;;;-8.40;99.90;;;;;;6207162;23;20372;-90
2023/02/09 05:40:46;;;;;;;;;;;-8.30;1.00;;;;;;6128010;23;20034;-88
2023/02/09 05:43:36;;;;;;;89.97;34.22;;;-8.30;1.00;;;;;;6227723;22;19992;-90
2023/02/09 05:46:32;;;;;;;91.47;37.83;;;-8.30;1.00;;;;;;6122752;23;20022;-87
2023/02/09 05:49:19;;;;;;;97.22;38.25;;;-8.30;99.90;;;;;;6123787;23;20037;-88
2023/02/09 05:52:07;;;;;;;92.07;37.17;;;-8.30;1.00;;;;;;6207408;23;20117;-87
2023/02/09 05:54:57;;;;;;;95.45;37.75;;;-8.30;1.00;;;;;;6210052;23;20042;-86
2023/02/09 05:57:47;;;;;;;92.75;38.45;;;-8.40;1.00;;;;;;6126452;22;20406;-87
2023/02/09 06:00:34;;;;;;;93.35;37.95;;;-8.40;99.90;;;;;;6207601;23;20022;-87
2023/02/09 06:03:26;;;;;;;90.80;37.85;;;-8.40;1.00;;;;;;6122895;23;20068;-87
2023/02/09 06:06:13;;;;;;;96.38;40.03;;;-8.40;1.00;;;;;;6204110;23;20037;-85
2023/02/09 06:09:01;;;;;;;95.25;37.47;;;-8.30;1.00;;;;;;6208289;23;20034;-87
2023/02/09 06:11:48;;;;;;;101.50;38.10;;;-8.30;1.00;;;;;;6208698;23;20033;-86
2023/02/09 06:14:36;;;;;;;100.88;40.42;;;-8.30;61.00;;;;;;6124257;23;20033;-87
2023/02/09 06:17:25;;;;;;;95.90;40.47;;;-8.50;1.00;;;;;;6124918;23;20026;-87
2023/02/09 06:20:16;;;;;;;98.95;40.78;;;-8.40;16.20;;;;;;6129475;23;20030;-86
2023/02/09 06:23:03;;;;;;;76.15;31.05;;;-8.20;99.90;;;;;;6135242;23;20030;-85
2023/02/09 06:25:52;;;;;;;112.85;44.05;;;-8.10;99.90;;;;;;6129519;23;20333;-87
2023/02/09 06:28:39;;;;;;;110.70;45.40;;;-8.00;99.90;;;;;;6127486;23;20056;-88
2023/02/09 06:31:32;;;;;;;114.30;42.97;;;-7.90;99.90;;;;;;6125191;23;20041;-87
2023/02/09 06:34:19;;;;;;;109.93;44.67;;;-7.90;99.90;;;;;;6124398;23;20037;-89
2023/02/09 06:37:06;;;;;;;118.93;46.50;;;-7.90;99.90;;;;;;6209533;23;20133;-89
2023/02/09 06:39:56;;;;;;;113.43;46.92;;;-7.60;1.00;;;;;;6205891;23;20057;-89
2023/02/09 06:42:43;;;;;;;123.80;50.60;;;-7.10;45.00;;;;;;6208538;23;20055;-88
2023/02/09 06:45:31;;;;;;;117.60;47.30;;;-6.90;20.90;;;;;;6211580;23;20037;-89
2023/02/09 06:48:18;;;;;;;113.88;46.35;;;-6.80;1.00;;;;;;6211199;23;20030;-88
2023/02/09 06:51:11;;;;;;;104.53;44.13;;;-6.70;1.00;;;;;;6213648;23;20037;-89
2023/02/09 06:53:59;;;;;;;112.80;46.47;;;-6.70;99.90;;;;;;6130760;22;20113;-89
2023/02/09 06:56:46;;;;;;;105.25;42.92;;;-6.80;99.90;;;;;;6126158;23;20026;-88
2023/02/09 06:59:34;;;;;;;115.80;46.50;;;-6.80;99.90;;;;;;6124644;23;20429;-91
2023/02/09 07:02:21;;;;;;;113.28;45.08;;;-6.90;1.00;;;;;;6124972;23;20022;-90
2023/02/09 07:05:10;;;;;;;123.50;50.28;;;-6.90;1.00;;;;;;6211860;23;20030;-89
2023/02/09 07:07:58;;;;;;;116.88;49.67;;;-6.90;1.00;;;;;;6123060;23;20421;-89
2023/02/09 07:10:48;;;;;;;117.72;46.38;;;-6.80;49.40;;;;;;6209306;23;20026;-89
2023/02/09 07:13:35;;;;;;;128.65;49.35;;;-6.80;99.90;;;;;;6122594;23;20037;-89
2023/02/09 07:16:24;;;;;;;119.95;46.00;;;-6.80;1.00;;;;;;6126205;23;20026;-88
2023/02/09 07:19:12;;;;;;;111.10;46.25;;;-6.90;99.90;;;;;;6123789;23;20081;-89
2023/02/09 07:21:59;;;;;;;112.28;47.22;;;-7.00;1.00;;;;;;6124031;23;20295;-90
2023/02/09 07:24:49;;;;;;;112.00;46.75;;;-6.90;1.00;;;;;;6122841;23;20030;-89
2023/02/09 07:27:36;;;;;;;107.97;48.50;;;-6.90;99.90;;;;;;6125656;23;20053;-89
2023/02/09 07:30:26;;;;;;;104.47;46.80;;;-6.70;1.00;;;;;;6125978;23;20041;-87
2023/02/09 07:33:13;;;;;;;117.80;47.90;;;-6.40;1.00;;;;;;6128729;23;20090;-89
2023/02/09 07:36:06;;;;;;;113.50;48.88;;;-6.10;99.90;;;;;;6210001;23;20026;-89
2023/02/09 07:38:55;;;;;;;112.07;48.15;;;-5.70;1.00;;;;;;6210331;23;20025;-89
2023/02/09 07:41:45;;;;;;;123.93;51.05;;;-5.20;1.00;;;;;;6126481;23;20026;-90
2023/02/09 07:44:35;;;;;;;156.45;65.18;;;-5.00;99.90;;;;;;6126151;23;20030;-88
2023/02/09 07:47:22;;;;;;;217.57;85.40;;;-4.80;12.50;;;;;;6125540;23;20068;-91
2023/02/09 07:50:10;;;;;;;168.25;66.05;;;-4.70;24.70;;;;;;6210210;23;20045;-90
2023/02/09 07:52:57;;;;;;;126.93;53.80;;;-4.70;44.40;;;;;;6210976;22;20026;-90
2023/02/09 07:55:46;;;;;;;115.00;50.85;;;-4.60;1.00;;;;;;6213372;23;20033;-88
2023/02/09 07:58:34;;;;;;;107.00;49.60;;;-4.70;99.90;;;;;;6222496;23;20029;-89
2023/02/09 08:01:24;;;;;;;105.75;50.10;;;-4.70;58.80;;;;;;6134490;23;20416;-89
2023/02/09 08:04:11;;;;;;;107.00;47.75;;;-4.70;99.90;;;;;;6214932;22;20032;-88
2023/02/09 08:06:59;;;;;;;101.72;46.22;;;-4.60;99.90;;;;;;6219682;23;20078;-88
2023/02/09 08:09:46;;;;;;;104.25;45.58;;;-4.60;1.00;;;;;;6137524;23;20034;-89
2023/02/09 08:15:45;;;;;;;99.53;44.13;;;-4.30;99.90;;;;;;6132432;23;20022;-90
2023/02/09 08:18:44;;;;;;;92.07;43.88;;;-4.20;99.90;;;;;;6130572;23;20050;-90
2023/02/09 08:21:37;;;;;;;89.15;43.40;;;-4.10;1.00;;;;;;6126992;23;20026;-90
2023/02/09 08:24:27;;;;;;;70.65;32.65;;;-4.20;99.90;;;;;;6124647;23;20037;-90
2023/02/09 08:27:14;;;;;;;89.10;43.53;;;-4.20;99.90;;;;;;6124738;23;20093;-89
2023/02/09 08:30:02;;;;;;;91.63;44.13;;;-4.00;99.90;;;;;;6126061;23;20079;-89
2023/02/09 08:32:50;;;;;;;90.18;43.13;;;-3.80;1.00;;;;;;6123659;23;20147;-91
2023/02/09 08:35:37;;;;;;;89.45;44.15;;;-3.60;1.00;;;;;;6124606;23;20332;-90
2023/02/09 08:38:25;;;;;;;87.93;43.58;;;-3.40;99.90;;;;;;6210022;23;20104;-90
2023/02/09 08:41:14;;;;;;;86.85;42.33;;;-3.30;99.90;;;;;;6168852;23;20033;-90
2023/02/09 08:44:02;;;;;;;87.78;40.85;;;-3.20;46.60;;;;;;6212943;23;20030;-89
2023/02/09 08:46:52;;;;;;;84.72;41.03;;;-3.10;1.00;;;;;;6213540;23;20042;-88
2023/02/09 08:49:42;;;;;;;;;;;-2.90;1.00;;;;;;6123552;23;20037;-90
2023/02/09 08:52:32;;;;;;;77.57;37.45;;;-2.20;99.90;;;;;;6125269;23;19921;-89
2023/02/09 08:55:19;;;;;;;72.63;36.03;;;-2.00;99.90;;;;;;6210426;23;20065;-89
2023/02/09 08:58:07;;;;;;;75.22;35.10;;;-1.70;1.00;;;;;;6211519;22;20026;-89
2023/02/09 09:00:55;;;;;;;65.78;34.28;;;-1.30;1.00;;;;;;6121879;23;20088;-88
2023/02/09 09:03:43;;;;;;;66.10;32.65;;;-0.90;99.90;;;;;;6127785;22;20104;-89
2023/02/09 09:06:32;;;;;;;63.95;32.53;;;-0.60;99.90;;;;;;6209999;23;20026;-88
2023/02/09 09:09:20;;;;;;;70.43;32.65;;;-0.50;99.90;;;;;;6217953;22;20030;-89
2023/02/09 09:12:07;;;;;;;58.67;30.27;;;-0.20;3.20;;;;;;6206572;23;20040;-90
2023/02/09 09:14:55;;;;;;;60.88;30.65;;;-0.20;1.00;;;;;;6126550;23;20424;-88
2023/02/09 09:17:42;;;;;;;60.58;31.60;;;0.10;1.00;;;;;;6126986;23;20022;-88
2023/02/09 09:20:31;;;;;;;57.80;29.67;;;0.60;1.00;;;;;;6210614;23;20030;-88
2023/02/09 09:23:19;;;;;;;54.58;29.98;;;1.00;99.90;;;;;;6211654;23;20113;-89
2023/02/09 09:26:07;;;;;;;64.25;32.05;;;0.90;99.90;;;;;;6126618;23;20032;-89
2023/02/09 09:28:54;;;;;;;56.22;29.98;;;0.90;99.90;;;;;;6128363;23;20119;-89
2023/02/09 09:31:42;;;;;;;57.50;31.35;;;1.20;99.90;;;;;;6213686;22;20097;-89
2023/02/09 09:34:32;;;;;;;57.20;29.42;;;1.50;99.90;;;;;;6126215;23;20022;-90
2023/02/09 09:37:21;;;;;;;58.45;30.58;;;1.20;99.90;;;;;;6126541;23;20026;-88
2023/02/09 09:40:41;;;;;;;56.83;29.55;;;1.00;99.90;;;;;;6137595;23;20057;-90
2023/02/09 09:43:38;;;;;;;58.38;29.08;;;1.20;99.90;;;;;;6137173;22;20022;-89
2023/02/09 09:46:39;;;;;;;51.90;28.40;;;1.80;99.90;;;;;;6220737;23;20026;-89
2023/02/09 09:49:30;;;;;;;50.70;27.73;;;2.70;99.90;;;;;;6223405;23;20025;-91
2023/02/09 09:52:31;;;;;;;52.35;28.23;;;2.90;99.90;;;;;;6140337;23;20025;-90
2023/02/09 09:55:30;;;;;;;46.85;26.88;;;3.10;99.90;;;;;;6223029;23;20026;-90
2023/02/09 09:58:18;;;;;;;51.38;26.85;;;3.70;99.90;;;;;;6229109;23;20026;-88
2023/02/09 10:01:15;;;;;;;48.38;26.60;;;4.50;99.90;;;;;;6144663;22;20037;-87
2023/02/09 10:04:14;;;;;;;52.28;27.90;;;5.00;99.90;;;;;;6143108;23;20080;-90
2023/02/09 10:07:16;;;;;;;50.42;26.40;;;5.40;99.90;;;;;;6146776;22;20014;-86
2023/02/09 10:10:16;;;;;;;51.97;27.10;;;6.20;99.90;;;;;;6146719;22;20013;-84
2023/02/09 10:13:30;;;;;;;48.35;25.83;;;5.80;99.90;;;;;;6146565;22;20034;-90
2023/02/09 10:16:33;;;;;;;46.70;25.85;;;6.20;99.90;;;;;;6144594;23;20022;-89
2023/02/09 10:19:25;;;;;;;47.83;25.98;;;6.00;99.90;;;;;;6234028;22;20022;-88
2023/02/09 10:22:13;;;;;;;43.40;25.63;;;6.70;99.90;;;;;;6148362;22;20014;-91
2023/02/09 10:25:23;;;;;;;41.75;24.42;;;6.90;99.90;;;;;;6140576;23;20022;-90
2023/02/09 10:28:25;;;;;;;47.53;25.17;;;6.60;99.90;;;;;;6223460;22;20037;-89
2023/02/09 10:31:38;;;;;;;46.78;24.35;;;6.00;99.60;;;;;;6134748;23;20037;-91
2023/02/09 10:34:50;;;;;;;41.15;23.60;;;6.30;99.20;;;;;;6214497;23;20053;-91
2023/02/09 10:37:38;;;;;;;44.75;24.55;;;6.20;95.30;;;;;;6132223;22;20030;-92
2023/02/09 10:40:33;;;;;;;40.75;24.13;;;6.00;93.50;;;;;;6131998;23;20105;-92
2023/02/09 10:43:29;;;;;;;36.70;21.25;;;6.40;92.90;;;;;;6199788;23;20053;-88
2023/02/09 10:46:20;;;;;;;39.60;23.33;;;7.50;92.60;;;;;;6138880;23;20041;-89
2023/02/09 10:49:29;;;;;;;43.75;23.58;;;7.30;81.70;;;;;;6139391;23;20026;-89
2023/02/09 10:52:20;;;;;;;45.47;22.70;;;6.70;71.80;;;;;;6224295;23;20033;-89
2023/02/09 10:55:40;;;;;;;37.63;21.98;;;7.10;72.50;;;;;;6139810;23;20032;-89
2023/02/09 10:58:36;;;;;;;38.25;22.88;;;7.40;72.00;;;;;;6208339;23;20037;-88
2023/02/09 11:01:29;;;;;;;34.05;21.65;;;7.80;63.60;;;;;;6138054;23;20074;-90
2023/02/09 11:04:20;;;;;;;36.17;21.17;;;7.20;58.70;;;;;;6140810;23;20041;-88
2023/02/09 11:07:14;;;;;;;34.17;21.42;;;7.50;54.90;;;;;;6142917;23;20026;-87
2023/02/09 11:10:05;;;;;;;35.30;21.85;;;7.80;53.20;;;;;;6234291;22;20025;-86
2023/02/09 11:13:01;;;;;;;37.70;21.92;;;8.10;49.70;;;;;;6148232;22;20024;-87
2023/02/09 11:16:06;;;;;;;37.38;21.23;;;7.70;45.40;;;;;;6148109;22;20010;-86
2023/02/09 11:19:06;;;;;;;36.55;21.15;;;8.10;43.90;;;;;;6147964;22;20033;-88
2023/02/09 11:22:16;;;;;;;34.25;20.85;;;8.90;43.10;;;;;;6146557;22;20021;-87
2023/02/09 11:25:42;;;;;;;40.40;21.25;;;9.40;39.80;;;;;;6231308;22;20025;-88
2023/02/09 11:28:48;;;;;;;38.97;20.88;;;9.20;34.40;;;;;;6146538;22;20049;-86
2023/02/09 11:32:24;;;;;;;37.00;22.42;;;9.50;35.30;;;;;;6232458;22;20030;-87
2023/02/09 11:35:17;;;;;;;31.98;20.73;;;10.10;30.70;;;;;;6148312;23;20033;-88
2023/02/09 11:38:12;;;;;;;31.52;20.85;;;9.30;25.70;;;;;;6213045;23;20045;-87
2023/02/09 11:42:42;;;;;;;44.40;22.05;;;8.90;24.40;;;;;;6145697;22;20026;-88
2023/02/09 11:44:25;;;;;;;34.60;21.25;;;8.50;21.80;;;;;;6147476;22;20020;-88
2023/02/09 11:47:41;;;;;;;34.15;21.33;;;8.20;19.30;;;;;;6147347;22;20029;-87
2023/02/09 11:51:00;;;;;;;34.10;19.30;;;9.40;25.40;;;;;;6154861;22;20014;-84
2023/02/09 11:54:06;;;;;;;34.03;18.88;;;10.80;20.30;;;;;;6147846;22;20067;-85
2023/02/09 11:57:06;;;;;;;31.33;18.33;;;9.80;16.90;;;;;;6233615;22;20014;-83
2023/02/09 11:59:57;;;;;;;31.85;18.85;;;10.30;16.10;;;;;;6225761;22;20014;-83
2023/02/09 12:03:08;;;;;;;28.65;18.10;;;10.00;12.00;;;;;;6148573;22;20048;-84
2023/02/09 12:05:57;;;;;;;27.42;17.63;;;10.00;11.00;;;;;;6146164;22;20018;-87
2023/02/09 12:08:57;;;;;;;34.40;19.67;;;9.50;6.10;;;;;;6148792;23;20024;-90
2023/02/09 12:12:16;;;;;;;32.53;18.98;;;9.70;7.90;;;;;;6229442;22;20032;-90
2023/02/09 12:15:23;;;;;;;27.75;17.67;;;10.80;9.20;;;;;;6148469;23;20052;-90
2023/02/09 12:18:20;;;;;;;33.47;18.88;;;11.90;8.10;;;;;;6223047;23;20026;-90
2023/02/09 12:21:08;;;;;;;27.48;16.60;;;12.20;6.10;;;;;;6137211;23;20018;-90
2023/02/09 12:23:55;;;;;;;35.17;17.45;;;12.80;3.50;;;;;;6222051;23;20036;-89
2023/02/09 12:26:52;;;;;;;27.30;17.98;;;11.50;1.00;;;;;;6138998;22;20026;-91
2023/02/09 12:29:44;;;;;;;29.80;17.20;;;10.80;1.00;;;;;;6136484;23;20026;-90
2023/02/09 12:32:44;;;;;;;29.15;18.80;;;11.60;1.00;;;;;;6135493;23;20033;-88
2023/02/09 12:35:39;;;;;;;23.80;16.55;;;10.60;1.00;;;;;;6134560;23;20041;-89
2023/02/09 12:38:45;;;;;;;29.25;18.50;;;9.80;1.00;;;;;;6134055;23;20079;-90
2023/02/09 12:41:43;;;;;;;29.30;17.85;;;10.40;1.00;;;;;;6128520;23;20026;-91
2023/02/09 12:44:39;;;;;;;32.97;19.38;;;11.10;1.00;;;;;;6213068;23;20310;-89
2023/02/09 12:47:44;;;;;;;32.00;18.33;;;9.90;1.00;;;;;;6125830;23;20091;-88
2023/02/09 12:50:42;;;;;;;30.90;19.08;;;10.30;1.00;;;;;;6124834;23;20040;-90
2023/02/09 12:53:33;;;;;;;27.90;17.15;;;11.00;1.00;;;;;;6127651;22;20641;-88
2023/02/09 12:56:23;;;;;;;25.85;16.60;;;12.60;1.00;;;;;;6125230;23;20528;-91
2023/02/09 12:59:17;;;;;;;30.00;17.73;;;14.00;1.00;;;;;;6210230;23;20432;-88
2023/02/09 13:02:07;;;;;;;26.40;17.67;;;14.90;1.00;;;;;;6126306;23;20033;-90
2023/02/09 13:05:18;;;;;;;25.50;17.17;;;15.10;1.00;;;;;;6214730;22;20022;-89
2023/02/09 13:08:17;;;;;;;28.85;15.85;;;16.30;1.00;;;;;;6125278;23;20042;-89
2023/02/09 13:11:26;;;;;;;28.77;17.88;;;15.90;1.00;;;;;;6122655;23;20025;-89
2023/02/09 13:14:15;;;;;;;23.95;15.82;;;13.10;1.00;;;;;;6212118;23;20037;-90
2023/02/09 13:17:11;;;;;;;25.55;15.70;;;13.20;1.00;;;;;;6211710;23;20444;-88
2023/02/09 13:20:40;;;;;;;21.55;15.10;;;14.40;1.00;;;;;;6123266;23;20045;-90
2023/02/09 13:23:35;;;;;;;22.40;15.77;;;14.70;1.00;;;;;;6125869;23;20093;-91
2023/02/09 13:26:26;;;;;;;25.77;15.93;;;14.20;1.00;;;;;;6208224;23;20044;-89
2023/02/09 13:29:16;;;;;;;26.20;16.35;;;13.00;1.00;;;;;;6125333;23;20305;-89
2023/02/09 13:32:40;;;;;;;25.48;16.20;;;11.90;1.00;;;;;;6125538;23;20041;-90
2023/02/09 13:36:05;;;;;;;28.67;16.38;;;12.30;1.00;;;;;;6209785;22;20026;-90
2023/02/09 13:39:06;;;;;;;25.77;16.25;;;13.50;1.00;;;;;;6123686;23;20105;-90
2023/02/09 13:41:55;;;;;;;28.30;16.92;;;14.20;1.00;;;;;;6123678;23;20033;-90
2023/02/09 13:44:45;;;;;;;25.85;16.88;;;14.70;1.00;;;;;;6128687;23;20030;-87
2023/02/09 13:47:33;;;;;;;27.63;16.88;;;15.10;1.00;;;;;;6212750;23;20029;-88
2023/02/09 13:50:27;;;;;;;24.88;17.35;;;15.40;1.00;;;;;;6131473;22;20026;-90
2023/02/09 13:53:15;;;;;;;;;;;16.00;1.00;;;;;;6125123;23;20026;-91
2023/02/09 13:56:10;;;;;;;25.58;17.35;;;16.10;1.00;;;;;;6128105;23;19925;-90
2023/02/09 13:58:59;;;;;;;26.77;16.70;;;16.80;1.00;;;;;;6210640;23;20056;-90
2023/02/09 14:01:48;;;;;;;27.30;18.60;;;16.50;1.00;;;;;;6210884;23;20093;-89
2023/02/09 14:04:35;;;;;;;29.15;18.67;;;16.40;1.00;;;;;;6211102;23;20115;-91
2023/02/09 14:07:26;;;;;;;26.08;17.13;;;16.10;1.00;;;;;;6127467;22;20084;-90
2023/02/09 14:10:16;;;;;;;25.95;17.80;;;16.40;1.00;;;;;;6212893;23;20022;-90
2023/02/09 14:13:22;;;;;;;27.20;19.33;;;17.10;1.00;;;;;;6209995;23;20032;-89
2023/02/09 14:16:15;;;;;;;27.63;17.45;;;15.50;1.00;;;;;;6213638;22;20097;-89
2023/02/09 14:19:26;;;;;;;26.95;18.25;;;15.00;1.00;;;;;;6210978;23;20033;-89
2023/02/09 14:22:40;;;;;;;28.13;18.63;;;15.50;1.00;;;;;;6216807;22;20029;-90
2023/02/09 14:25:28;;;;;;;;;;;15.40;1.00;;;;;;6130916;23;20040;-87
2023/02/09 14:28:16;;;;;;;26.70;17.60;;;15.10;1.00;;;;;;6136780;22;19940;-89
2023/02/09 14:31:06;;;;;;;28.75;18.27;;;13.80;1.00;;;;;;6126029;23;20076;-88
2023/02/09 14:33:55;;;;;;;29.02;18.52;;;13.30;1.00;;;;;;6213317;23;20370;-88
2023/02/09 14:36:51;;;;;;;28.05;18.33;;;13.10;1.00;;;;;;6212900;23;20064;-92
2023/02/09 14:40:07;;;;;;;29.88;19.15;;;13.50;1.00;;;;;;6214051;23;20026;-90
2023/02/09 14:43:17;;;;;;;28.38;18.77;;;12.00;1.00;;;;;;6127069;23;20040;-89
2023/02/09 14:46:06;;;;;;;32.80;19.30;;;12.00;1.00;;;;;;6209595;23;20152;-90
2023/02/09 14:48:59;;;;;;;28.55;18.50;;;12.40;1.00;;;;;;6124329;23;20433;-89
2023/02/09 14:51:51;;;;;;;34.17;18.98;;;11.50;1.00;;;;;;6208147;23;20036;-87
2023/02/09 14:54:47;;;;;;;31.92;20.55;;;11.40;1.00;;;;;;6122772;23;20033;-89
2023/02/09 16:17:27;;;;;;;37.65;21.15;;;4.40;1.00;;;;;;6248527;23;20101;-86
2023/02/09 16:20:15;;;;;;;40.25;21.20;;;3.70;1.00;;;;;;6248998;22;20031;-86